sensor_id;sensor_type;location;lat;lon;timestamp;P1;durP1;ratioP1;P2;durP2;ratioP2
5730;SDS011;2890;51.950;7.668;2023-05-13T00:01:23;9.30;;;8.60;;
5730;SDS011;2890;51.950;7.668;2023-05-13T00:03:50;10.13;;;8.80;;
5730;SDS011;2890;51.950;7.668;2023-05-13T00:06:16;10.93;;;9.80;;
5730;SDS011;2890;51.950;7.668;2023-05-13T00:08:43;9.60;;;8.80;;
5730;SDS011;2890;51.950;7.668;2023-05-13T00:11:09;11.40;;;8.13;;
5730;SDS011;2890;51.950;7.668;2023-05-13T00:13:36;11.30;;;8.50;;
5730;SDS011;2890;51.950;7.668;2023-05-13T00:16:04;8.57;;;7.87;;
5730;SDS011;2890;51.950;7.668;2023-05-13T00:18:30;9.20;;;8.40;;
5730;SDS011;2890;51.950;7.668;2023-05-13T00:20:57;9.80;;;9.07;;
5730;SDS011;2890;51.950;7.668;2023-05-13T00:23:23;9.60;;;8.70;;
5730;SDS011;2890;51.950;7.668;2023-05-13T00:25:50;8.20;;;7.70;;
5730;SDS011;2890;51.950;7.668;2023-05-13T00:28:16;10.57;;;9.10;;
5730;SDS011;2890;51.950;7.668;2023-05-13T00:30:43;9.40;;;8.60;;
5730;SDS011;2890;51.950;7.668;2023-05-13T00:33:11;9.83;;;9.00;;
5730;SDS011;2890;51.950;7.668;2023-05-13T00:35:37;9.43;;;8.63;;
5730;SDS011;2890;51.950;7.668;2023-05-13T00:38:04;10.43;;;8.80;;
5730;SDS011;2890;51.950;7.668;2023-05-13T00:40:31;9.67;;;8.97;;
5730;SDS011;2890;51.950;7.668;2023-05-13T00:42:59;9.83;;;8.87;;
5730;SDS011;2890;51.950;7.668;2023-05-13T00:45:25;11.03;;;9.93;;
5730;SDS011;2890;51.950;7.668;2023-05-13T00:47:52;13.37;;;9.53;;
5730;SDS011;2890;51.950;7.668;2023-05-13T00:50:21;10.57;;;9.57;;
5730;SDS011;2890;51.950;7.668;2023-05-13T00:52:48;10.97;;;10.03;;
5730;SDS011;2890;51.950;7.668;2023-05-13T00:55:15;13.57;;;10.40;;
5730;SDS011;2890;51.950;7.668;2023-05-13T00:57:42;11.87;;;10.70;;
5730;SDS011;2890;51.950;7.668;2023-05-13T01:00:09;12.87;;;11.63;;
5730;SDS011;2890;51.950;7.668;2023-05-13T01:02:38;11.53;;;10.63;;
5730;SDS011;2890;51.950;7.668;2023-05-13T01:05:12;10.87;;;10.07;;
5730;SDS011;2890;51.950;7.668;2023-05-13T01:07:47;11.40;;;10.50;;
5730;SDS011;2890;51.950;7.668;2023-05-13T01:10:25;11.87;;;10.63;;
5730;SDS011;2890;51.950;7.668;2023-05-13T01:12:58;12.60;;;11.50;;
5730;SDS011;2890;51.950;7.668;2023-05-13T01:15:31;12.60;;;11.50;;
5730;SDS011;2890;51.950;7.668;2023-05-13T01:18:02;13.13;;;10.93;;
5730;SDS011;2890;51.950;7.668;2023-05-13T01:20:33;12.43;;;11.43;;
5730;SDS011;2890;51.950;7.668;2023-05-13T01:23:04;11.67;;;10.77;;
5730;SDS011;2890;51.950;7.668;2023-05-13T01:25:31;12.50;;;11.27;;
5730;SDS011;2890;51.950;7.668;2023-05-13T01:27:57;12.93;;;11.07;;
5730;SDS011;2890;51.950;7.668;2023-05-13T01:30:24;11.87;;;10.87;;
5730;SDS011;2890;51.950;7.668;2023-05-13T01:32:50;14.77;;;11.53;;
5730;SDS011;2890;51.950;7.668;2023-05-13T01:35:17;12.27;;;11.17;;
5730;SDS011;2890;51.950;7.668;2023-05-13T01:37:44;13.07;;;11.93;;
5730;SDS011;2890;51.950;7.668;2023-05-13T01:40:13;13.80;;;10.80;;
5730;SDS011;2890;51.950;7.668;2023-05-13T01:42:39;13.30;;;12.03;;
5730;SDS011;2890;51.950;7.668;2023-05-13T01:45:06;11.67;;;10.83;;
5730;SDS011;2890;51.950;7.668;2023-05-13T01:47:33;14.37;;;12.33;;
5730;SDS011;2890;51.950;7.668;2023-05-13T01:50:00;13.03;;;11.77;;
5730;SDS011;2890;51.950;7.668;2023-05-13T01:52:26;13.70;;;12.40;;
5730;SDS011;2890;51.950;7.668;2023-05-13T01:54:53;13.40;;;12.40;;
5730;SDS011;2890;51.950;7.668;2023-05-13T01:57:21;13.80;;;12.53;;
5730;SDS011;2890;51.950;7.668;2023-05-13T01:59:47;13.47;;;12.20;;
5730;SDS011;2890;51.950;7.668;2023-05-13T02:02:14;13.63;;;12.10;;
5730;SDS011;2890;51.950;7.668;2023-05-13T02:11:23;13.23;;;12.17;;
5730;SDS011;2890;51.950;7.668;2023-05-13T02:13:51;13.00;;;11.80;;
5730;SDS011;2890;51.950;7.668;2023-05-13T02:16:18;13.27;;;12.27;;
5730;SDS011;2890;51.950;7.668;2023-05-13T02:18:45;13.67;;;12.57;;
5730;SDS011;2890;51.950;7.668;2023-05-13T02:21:11;14.00;;;12.20;;
5730;SDS011;2890;51.950;7.668;2023-05-13T02:23:38;13.53;;;12.43;;
5730;SDS011;2890;51.950;7.668;2023-05-13T02:26:06;15.70;;;14.10;;
5730;SDS011;2890;51.950;7.668;2023-05-13T02:28:32;13.77;;;12.67;;
5730;SDS011;2890;51.950;7.668;2023-05-13T02:31:00;13.83;;;12.73;;
5730;SDS011;2890;51.950;7.668;2023-05-13T02:33:27;15.80;;;14.13;;
5730;SDS011;2890;51.950;7.668;2023-05-13T02:35:53;14.77;;;12.90;;
5730;SDS011;2890;51.950;7.668;2023-05-13T02:38:20;14.30;;;12.80;;
5730;SDS011;2890;51.950;7.668;2023-05-13T02:40:46;14.97;;;13.57;;
5730;SDS011;2890;51.950;7.668;2023-05-13T02:43:13;16.33;;;13.00;;
5730;SDS011;2890;51.950;7.668;2023-05-13T02:45:39;14.03;;;12.93;;
5730;SDS011;2890;51.950;7.668;2023-05-13T02:48:07;13.33;;;12.33;;
5730;SDS011;2890;51.950;7.668;2023-05-13T02:50:35;13.30;;;12.10;;
5730;SDS011;2890;51.950;7.668;2023-05-13T02:53:01;13.63;;;12.40;;
5730;SDS011;2890;51.950;7.668;2023-05-13T02:55:28;13.97;;;12.90;;
5730;SDS011;2890;51.950;7.668;2023-05-13T02:57:54;15.07;;;13.83;;
5730;SDS011;2890;51.950;7.668;2023-05-13T03:00:21;14.60;;;13.40;;
5730;SDS011;2890;51.950;7.668;2023-05-13T03:02:48;14.90;;;13.03;;
5730;SDS011;2890;51.950;7.668;2023-05-13T03:05:17;15.33;;;13.87;;
5730;SDS011;2890;51.950;7.668;2023-05-13T03:07:43;13.93;;;12.73;;
5730;SDS011;2890;51.950;7.668;2023-05-13T03:10:10;15.70;;;14.30;;
5730;SDS011;2890;51.950;7.668;2023-05-13T03:12:36;13.80;;;12.80;;
5730;SDS011;2890;51.950;7.668;2023-05-13T03:15:03;15.50;;;13.90;;
5730;SDS011;2890;51.950;7.668;2023-05-13T03:17:30;15.03;;;13.60;;
5730;SDS011;2890;51.950;7.668;2023-05-13T03:19:57;14.30;;;13.00;;
5730;SDS011;2890;51.950;7.668;2023-05-13T03:22:25;16.27;;;14.50;;
5730;SDS011;2890;51.950;7.668;2023-05-13T03:24:52;15.90;;;14.30;;
5730;SDS011;2890;51.950;7.668;2023-05-13T03:27:18;14.70;;;13.50;;
5730;SDS011;2890;51.950;7.668;2023-05-13T03:29:45;15.37;;;13.67;;
5730;SDS011;2890;51.950;7.668;2023-05-13T03:32:11;15.27;;;13.77;;
5730;SDS011;2890;51.950;7.668;2023-05-13T03:34:38;22.17;;;14.93;;
5730;SDS011;2890;51.950;7.668;2023-05-13T03:37:04;16.63;;;15.03;;
5730;SDS011;2890;51.950;7.668;2023-05-13T03:39:33;14.10;;;13.00;;
5730;SDS011;2890;51.950;7.668;2023-05-13T03:42:00;15.57;;;14.27;;
5730;SDS011;2890;51.950;7.668;2023-05-13T03:44:27;14.67;;;13.47;;
5730;SDS011;2890;51.950;7.668;2023-05-13T03:46:53;14.80;;;13.40;;
5730;SDS011;2890;51.950;7.668;2023-05-13T03:49:20;15.20;;;14.00;;
5730;SDS011;2890;51.950;7.668;2023-05-13T03:51:46;15.73;;;14.33;;
5730;SDS011;2890;51.950;7.668;2023-05-13T03:54:13;16.53;;;14.40;;
5730;SDS011;2890;51.950;7.668;2023-05-13T03:56:41;15.30;;;14.07;;
5730;SDS011;2890;51.950;7.668;2023-05-13T03:59:07;16.27;;;14.57;;
5730;SDS011;2890;51.950;7.668;2023-05-13T04:01:34;16.40;;;14.77;;
5730;SDS011;2890;51.950;7.668;2023-05-13T04:04:01;14.77;;;13.63;;
5730;SDS011;2890;51.950;7.668;2023-05-13T04:06:27;15.30;;;14.07;;
5730;SDS011;2890;51.950;7.668;2023-05-13T04:08:54;15.40;;;13.97;;
5730;SDS011;2890;51.950;7.668;2023-05-13T04:11:20;14.97;;;13.60;;
5730;SDS011;2890;51.950;7.668;2023-05-13T04:13:48;15.87;;;14.37;;
5730;SDS011;2890;51.950;7.668;2023-05-13T04:16:15;15.87;;;13.93;;
5730;SDS011;2890;51.950;7.668;2023-05-13T04:18:41;15.87;;;14.27;;
5730;SDS011;2890;51.950;7.668;2023-05-13T04:21:08;15.83;;;14.23;;
5730;SDS011;2890;51.950;7.668;2023-05-13T04:23:35;15.63;;;14.43;;
5730;SDS011;2890;51.950;7.668;2023-05-13T04:26:01;16.37;;;14.87;;
5730;SDS011;2890;51.950;7.668;2023-05-13T04:28:28;16.20;;;14.70;;
5730;SDS011;2890;51.950;7.668;2023-05-13T04:30:56;15.70;;;14.20;;
5730;SDS011;2890;51.950;7.668;2023-05-13T04:33:23;15.47;;;14.17;;
5730;SDS011;2890;51.950;7.668;2023-05-13T04:35:49;16.63;;;14.60;;
5730;SDS011;2890;51.950;7.668;2023-05-13T04:38:16;14.97;;;13.63;;
5730;SDS011;2890;51.950;7.668;2023-05-13T04:40:42;15.93;;;14.73;;
5730;SDS011;2890;51.950;7.668;2023-05-13T04:43:09;14.50;;;12.93;;
5730;SDS011;2890;51.950;7.668;2023-05-13T04:45:36;15.13;;;13.33;;
5730;SDS011;2890;51.950;7.668;2023-05-13T04:48:04;15.43;;;14.13;;
5730;SDS011;2890;51.950;7.668;2023-05-13T04:50:31;18.83;;;13.97;;
5730;SDS011;2890;51.950;7.668;2023-05-13T04:52:57;14.87;;;13.57;;
5730;SDS011;2890;51.950;7.668;2023-05-13T04:55:23;16.27;;;14.57;;
5730;SDS011;2890;51.950;7.668;2023-05-13T04:57:50;17.60;;;13.70;;
5730;SDS011;2890;51.950;7.668;2023-05-13T05:00:16;14.93;;;13.57;;
5730;SDS011;2890;51.950;7.668;2023-05-13T05:02:43;15.47;;;14.17;;
5730;SDS011;2890;51.950;7.668;2023-05-13T05:05:11;14.33;;;13.00;;
5730;SDS011;2890;51.950;7.668;2023-05-13T05:07:37;15.50;;;14.20;;
5730;SDS011;2890;51.950;7.668;2023-05-13T05:10:05;14.80;;;13.53;;
5730;SDS011;2890;51.950;7.668;2023-05-13T05:12:32;15.03;;;13.83;;
5730;SDS011;2890;51.950;7.668;2023-05-13T05:14:59;18.73;;;13.80;;
5730;SDS011;2890;51.950;7.668;2023-05-13T05:17:25;14.80;;;13.50;;
5730;SDS011;2890;51.950;7.668;2023-05-13T05:19:56;15.60;;;12.80;;
5730;SDS011;2890;51.950;7.668;2023-05-13T05:22:24;14.27;;;13.10;;
5730;SDS011;2890;51.950;7.668;2023-05-13T05:24:50;14.43;;;12.87;;
5730;SDS011;2890;51.950;7.668;2023-05-13T05:27:17;15.53;;;13.73;;
5730;SDS011;2890;51.950;7.668;2023-05-13T05:29:43;14.00;;;12.30;;
5730;SDS011;2890;51.950;7.668;2023-05-13T05:32:10;16.30;;;13.17;;
5730;SDS011;2890;51.950;7.668;2023-05-13T05:34:36;13.67;;;12.57;;
5730;SDS011;2890;51.950;7.668;2023-05-13T05:37:03;13.03;;;11.90;;
5730;SDS011;2890;51.950;7.668;2023-05-13T05:39:31;12.40;;;11.23;;
5730;SDS011;2890;51.950;7.668;2023-05-13T05:41:59;14.70;;;11.20;;
5730;SDS011;2890;51.950;7.668;2023-05-13T05:44:25;12.40;;;11.20;;
5730;SDS011;2890;51.950;7.668;2023-05-13T05:46:52;24.73;;;11.10;;
5730;SDS011;2890;51.950;7.668;2023-05-13T05:49:19;14.70;;;11.60;;
5730;SDS011;2890;51.950;7.668;2023-05-13T05:51:45;12.20;;;11.03;;
5730;SDS011;2890;51.950;7.668;2023-05-13T05:54:12;12.37;;;11.13;;
5730;SDS011;2890;51.950;7.668;2023-05-13T05:56:40;12.10;;;10.93;;
5730;SDS011;2890;51.950;7.668;2023-05-13T05:59:06;11.07;;;10.10;;
5730;SDS011;2890;51.950;7.668;2023-05-13T06:01:33;13.27;;;12.03;;
5730;SDS011;2890;51.950;7.668;2023-05-13T06:04:00;13.20;;;11.67;;
5730;SDS011;2890;51.950;7.668;2023-05-13T06:06:27;11.20;;;10.40;;
5730;SDS011;2890;51.950;7.668;2023-05-13T06:08:53;11.77;;;10.57;;
5730;SDS011;2890;51.950;7.668;2023-05-13T06:11:20;11.93;;;10.83;;
5730;SDS011;2890;51.950;7.668;2023-05-13T06:13:48;12.57;;;11.27;;
5730;SDS011;2890;51.950;7.668;2023-05-13T06:16:15;11.03;;;10.33;;
5730;SDS011;2890;51.950;7.668;2023-05-13T06:18:41;13.73;;;10.47;;
5730;SDS011;2890;51.950;7.668;2023-05-13T06:21:08;10.03;;;9.33;;
5730;SDS011;2890;51.950;7.668;2023-05-13T06:23:34;10.30;;;9.43;;
5730;SDS011;2890;51.950;7.668;2023-05-13T06:26:01;10.60;;;9.80;;
5730;SDS011;2890;51.950;7.668;2023-05-13T06:28:28;11.47;;;10.00;;
5730;SDS011;2890;51.950;7.668;2023-05-13T06:30:56;11.93;;;10.83;;
5730;SDS011;2890;51.950;7.668;2023-05-13T06:33:22;10.90;;;10.00;;
5730;SDS011;2890;51.950;7.668;2023-05-13T06:35:49;10.23;;;9.20;;
5730;SDS011;2890;51.950;7.668;2023-05-13T06:38:15;10.50;;;9.70;;
5730;SDS011;2890;51.950;7.668;2023-05-13T06:40:42;9.60;;;8.73;;
5730;SDS011;2890;51.950;7.668;2023-05-13T06:43:09;9.97;;;8.93;;
5730;SDS011;2890;51.950;7.668;2023-05-13T06:45:38;8.77;;;8.00;;
5730;SDS011;2890;51.950;7.668;2023-05-13T06:48:06;9.77;;;8.87;;
5730;SDS011;2890;51.950;7.668;2023-05-13T06:50:32;9.83;;;9.13;;
5730;SDS011;2890;51.950;7.668;2023-05-13T06:52:59;9.10;;;8.50;;
5730;SDS011;2890;51.950;7.668;2023-05-13T06:55:25;8.83;;;7.83;;
5730;SDS011;2890;51.950;7.668;2023-05-13T06:57:52;8.93;;;7.90;;
5730;SDS011;2890;51.950;7.668;2023-05-13T07:00:18;9.00;;;8.20;;
5730;SDS011;2890;51.950;7.668;2023-05-13T07:02:45;9.93;;;8.03;;
5730;SDS011;2890;51.950;7.668;2023-05-13T07:05:13;8.80;;;8.07;;
5730;SDS011;2890;51.950;7.668;2023-05-13T07:07:39;8.93;;;8.03;;
5730;SDS011;2890;51.950;7.668;2023-05-13T07:10:07;8.80;;;8.00;;
5730;SDS011;2890;51.950;7.668;2023-05-13T07:12:34;8.93;;;8.33;;
5730;SDS011;2890;51.950;7.668;2023-05-13T07:15:01;10.87;;;8.13;;
5730;SDS011;2890;51.950;7.668;2023-05-13T07:17:27;8.27;;;7.57;;
5730;SDS011;2890;51.950;7.668;2023-05-13T07:19:55;8.70;;;8.10;;
5730;SDS011;2890;51.950;7.668;2023-05-13T07:22:23;9.70;;;7.60;;
5730;SDS011;2890;51.950;7.668;2023-05-13T07:24:49;9.50;;;8.27;;
5730;SDS011;2890;51.950;7.668;2023-05-13T07:27:16;10.03;;;8.23;;
5730;SDS011;2890;51.950;7.668;2023-05-13T07:29:42;8.30;;;7.70;;
5730;SDS011;2890;51.950;7.668;2023-05-13T07:32:09;8.40;;;7.70;;
5730;SDS011;2890;51.950;7.668;2023-05-13T07:34:35;11.10;;;7.53;;
5730;SDS011;2890;51.950;7.668;2023-05-13T07:37:02;11.87;;;7.57;;
5730;SDS011;2890;51.950;7.668;2023-05-13T07:39:30;8.77;;;7.97;;
5730;SDS011;2890;51.950;7.668;2023-05-13T07:41:56;8.50;;;7.60;;
5730;SDS011;2890;51.950;7.668;2023-05-13T07:44:26;7.53;;;6.93;;
5730;SDS011;2890;51.950;7.668;2023-05-13T07:46:52;7.70;;;7.00;;
5730;SDS011;2890;51.950;7.668;2023-05-13T07:49:19;11.03;;;6.80;;
5730;SDS011;2890;51.950;7.668;2023-05-13T07:51:46;7.83;;;7.20;;
5730;SDS011;2890;51.950;7.668;2023-05-13T07:54:12;8.27;;;7.57;;
5730;SDS011;2890;51.950;7.668;2023-05-13T07:56:40;8.60;;;7.67;;
5730;SDS011;2890;51.950;7.668;2023-05-13T07:59:08;7.30;;;6.80;;
5730;SDS011;2890;51.950;7.668;2023-05-13T08:01:34;7.53;;;6.77;;
5730;SDS011;2890;51.950;7.668;2023-05-13T08:04:01;10.33;;;7.43;;
5730;SDS011;2890;51.950;7.668;2023-05-13T08:06:27;8.37;;;7.53;;
5730;SDS011;2890;51.950;7.668;2023-05-13T08:08:54;6.97;;;6.47;;
5730;SDS011;2890;51.950;7.668;2023-05-13T08:11:20;7.73;;;6.37;;
5730;SDS011;2890;51.950;7.668;2023-05-13T08:13:48;10.90;;;7.07;;
5730;SDS011;2890;51.950;7.668;2023-05-13T08:16:15;11.23;;;7.07;;
5730;SDS011;2890;51.950;7.668;2023-05-13T08:18:41;9.80;;;6.23;;
5730;SDS011;2890;51.950;7.668;2023-05-13T08:21:08;8.90;;;6.73;;
5730;SDS011;2890;51.950;7.668;2023-05-13T08:23:35;6.40;;;5.80;;
5730;SDS011;2890;51.950;7.668;2023-05-13T08:26:01;6.90;;;5.97;;
5730;SDS011;2890;51.950;7.668;2023-05-13T08:28:28;7.57;;;5.57;;
5730;SDS011;2890;51.950;7.668;2023-05-13T08:30:56;5.97;;;5.33;;
5730;SDS011;2890;51.950;7.668;2023-05-13T08:33:26;6.03;;;5.63;;
5730;SDS011;2890;51.950;7.668;2023-05-13T08:35:53;7.17;;;6.47;;
5730;SDS011;2890;51.950;7.668;2023-05-13T08:38:19;6.27;;;5.83;;
5730;SDS011;2890;51.950;7.668;2023-05-13T08:40:46;6.63;;;5.30;;
5730;SDS011;2890;51.950;7.668;2023-05-13T08:43:14;5.87;;;5.37;;
5730;SDS011;2890;51.950;7.668;2023-05-13T08:45:44;6.33;;;5.83;;
5730;SDS011;2890;51.950;7.668;2023-05-13T08:48:13;5.63;;;5.23;;
5730;SDS011;2890;51.950;7.668;2023-05-13T08:50:40;6.60;;;5.93;;
5730;SDS011;2890;51.950;7.668;2023-05-13T08:53:07;6.20;;;5.70;;
5730;SDS011;2890;51.950;7.668;2023-05-13T08:55:35;8.57;;;5.10;;
5730;SDS011;2890;51.950;7.668;2023-05-13T08:58:03;6.70;;;6.10;;
5730;SDS011;2890;51.950;7.668;2023-05-13T09:00:30;6.60;;;5.27;;
5730;SDS011;2890;51.950;7.668;2023-05-13T09:02:58;6.17;;;5.67;;
5730;SDS011;2890;51.950;7.668;2023-05-13T09:05:26;5.87;;;5.33;;
5730;SDS011;2890;51.950;7.668;2023-05-13T09:07:54;6.43;;;5.00;;
5730;SDS011;2890;51.950;7.668;2023-05-13T09:10:21;8.73;;;5.53;;
5730;SDS011;2890;51.950;7.668;2023-05-13T09:12:48;5.93;;;5.53;;
5730;SDS011;2890;51.950;7.668;2023-05-13T09:15:16;5.13;;;4.73;;
5730;SDS011;2890;51.950;7.668;2023-05-13T09:17:44;9.57;;;5.23;;
5730;SDS011;2890;51.950;7.668;2023-05-13T09:20:13;9.70;;;5.67;;
5730;SDS011;2890;51.950;7.668;2023-05-13T09:22:46;8.20;;;5.70;;
5730;SDS011;2890;51.950;7.668;2023-05-13T09:25:13;5.87;;;5.37;;
5730;SDS011;2890;51.950;7.668;2023-05-13T09:27:41;6.17;;;4.90;;
5730;SDS011;2890;51.950;7.668;2023-05-13T09:30:08;5.57;;;5.17;;
5730;SDS011;2890;51.950;7.668;2023-05-13T09:32:39;5.67;;;5.17;;
5730;SDS011;2890;51.950;7.668;2023-05-13T09:35:09;6.00;;;5.50;;
5730;SDS011;2890;51.950;7.668;2023-05-13T09:37:40;5.60;;;5.30;;
5730;SDS011;2890;51.950;7.668;2023-05-13T09:40:10;5.20;;;4.70;;
5730;SDS011;2890;51.950;7.668;2023-05-13T09:42:39;4.73;;;4.30;;
5730;SDS011;2890;51.950;7.668;2023-05-13T09:45:07;6.10;;;4.80;;
5730;SDS011;2890;51.950;7.668;2023-05-13T09:47:34;6.63;;;4.97;;
5730;SDS011;2890;51.950;7.668;2023-05-13T09:50:01;6.87;;;4.20;;
5730;SDS011;2890;51.950;7.668;2023-05-13T09:52:31;5.40;;;5.00;;
5730;SDS011;2890;51.950;7.668;2023-05-13T09:54:58;5.30;;;4.70;;
5730;SDS011;2890;51.950;7.668;2023-05-13T09:57:27;9.47;;;4.70;;
5730;SDS011;2890;51.950;7.668;2023-05-13T09:59:58;4.90;;;4.50;;
5730;SDS011;2890;51.950;7.668;2023-05-13T10:02:26;5.53;;;5.03;;
5730;SDS011;2890;51.950;7.668;2023-05-13T10:04:53;5.63;;;5.13;;
5730;SDS011;2890;51.950;7.668;2023-05-13T10:07:21;5.67;;;5.07;;
5730;SDS011;2890;51.950;7.668;2023-05-13T10:09:50;6.47;;;4.67;;
5730;SDS011;2890;51.950;7.668;2023-05-13T10:12:18;5.30;;;4.80;;
5730;SDS011;2890;51.950;7.668;2023-05-13T10:14:47;6.60;;;4.60;;
5730;SDS011;2890;51.950;7.668;2023-05-13T10:17:15;6.43;;;4.10;;
5730;SDS011;2890;51.950;7.668;2023-05-13T10:19:41;4.80;;;4.33;;
5730;SDS011;2890;51.950;7.668;2023-05-13T10:22:08;10.83;;;4.67;;
5730;SDS011;2890;51.950;7.668;2023-05-13T10:24:35;7.87;;;4.70;;
5730;SDS011;2890;51.950;7.668;2023-05-13T10:27:02;9.00;;;4.60;;
5730;SDS011;2890;51.950;7.668;2023-05-13T10:29:31;7.63;;;4.37;;
5730;SDS011;2890;51.950;7.668;2023-05-13T10:32:00;8.37;;;4.70;;
5730;SDS011;2890;51.950;7.668;2023-05-13T10:34:28;7.63;;;4.50;;
5730;SDS011;2890;51.950;7.668;2023-05-13T10:37:00;5.57;;;4.97;;
5730;SDS011;2890;51.950;7.668;2023-05-13T10:39:38;5.83;;;4.60;;
5730;SDS011;2890;51.950;7.668;2023-05-13T10:42:30;5.57;;;4.47;;
5730;SDS011;2890;51.950;7.668;2023-05-13T10:45:03;6.90;;;4.50;;
5730;SDS011;2890;51.950;7.668;2023-05-13T10:47:32;4.60;;;4.30;;
5730;SDS011;2890;51.950;7.668;2023-05-13T10:49:58;7.60;;;4.97;;
5730;SDS011;2890;51.950;7.668;2023-05-13T10:52:40;7.37;;;4.63;;
5730;SDS011;2890;51.950;7.668;2023-05-13T10:55:09;6.63;;;4.80;;
5730;SDS011;2890;51.950;7.668;2023-05-13T10:57:40;6.40;;;4.40;;
5730;SDS011;2890;51.950;7.668;2023-05-13T11:00:13;8.63;;;4.67;;
5730;SDS011;2890;51.950;7.668;2023-05-13T11:02:41;5.03;;;4.37;;
5730;SDS011;2890;51.950;7.668;2023-05-13T11:05:08;6.57;;;5.30;;
5730;SDS011;2890;51.950;7.668;2023-05-13T11:07:36;5.27;;;4.87;;
5730;SDS011;2890;51.950;7.668;2023-05-13T11:10:03;4.80;;;4.50;;
5730;SDS011;2890;51.950;7.668;2023-05-13T11:12:30;4.63;;;4.33;;
5730;SDS011;2890;51.950;7.668;2023-05-13T11:14:57;4.40;;;4.00;;
5730;SDS011;2890;51.950;7.668;2023-05-13T11:17:23;8.53;;;4.63;;
5730;SDS011;2890;51.950;7.668;2023-05-13T11:19:51;5.73;;;5.23;;
5730;SDS011;2890;51.950;7.668;2023-05-13T11:22:19;6.10;;;4.90;;
5730;SDS011;2890;51.950;7.668;2023-05-13T11:25:01;4.97;;;4.63;;
5730;SDS011;2890;51.950;7.668;2023-05-13T11:27:30;5.20;;;4.80;;
5730;SDS011;2890;51.950;7.668;2023-05-13T11:29:58;4.80;;;4.50;;
5730;SDS011;2890;51.950;7.668;2023-05-13T11:35:19;5.83;;;5.33;;
5730;SDS011;2890;51.950;7.668;2023-05-13T11:37:46;4.60;;;4.30;;
5730;SDS011;2890;51.950;7.668;2023-05-13T11:40:19;5.30;;;4.80;;
5730;SDS011;2890;51.950;7.668;2023-05-13T11:42:46;5.57;;;5.17;;
5730;SDS011;2890;51.950;7.668;2023-05-13T11:45:13;6.40;;;5.30;;
5730;SDS011;2890;51.950;7.668;2023-05-13T11:47:40;5.23;;;4.83;;
5730;SDS011;2890;51.950;7.668;2023-05-13T11:50:16;5.77;;;5.20;;
5730;SDS011;2890;51.950;7.668;2023-05-13T11:52:44;7.63;;;4.90;;
5730;SDS011;2890;51.950;7.668;2023-05-13T11:55:23;5.30;;;4.80;;
5730;SDS011;2890;51.950;7.668;2023-05-13T11:57:50;5.33;;;4.80;;
5730;SDS011;2890;51.950;7.668;2023-05-13T12:00:22;4.53;;;4.13;;
5730;SDS011;2890;51.950;7.668;2023-05-13T12:02:50;8.50;;;4.73;;
5730;SDS011;2890;51.950;7.668;2023-05-13T12:05:16;5.60;;;5.10;;
5730;SDS011;2890;51.950;7.668;2023-05-13T12:07:44;6.23;;;5.23;;
5730;SDS011;2890;51.950;7.668;2023-05-13T12:10:11;5.90;;;5.37;;
5730;SDS011;2890;51.950;7.668;2023-05-13T12:12:38;5.40;;;4.90;;
5730;SDS011;2890;51.950;7.668;2023-05-13T12:15:06;9.03;;;5.20;;
5730;SDS011;2890;51.950;7.668;2023-05-13T12:17:34;6.60;;;5.17;;
5730;SDS011;2890;51.950;7.668;2023-05-13T12:20:08;5.17;;;4.67;;
5730;SDS011;2890;51.950;7.668;2023-05-13T12:22:36;5.77;;;4.80;;
5730;SDS011;2890;51.950;7.668;2023-05-13T12:25:32;7.00;;;5.70;;
5730;SDS011;2890;51.950;7.668;2023-05-13T12:28:05;6.10;;;5.20;;
5730;SDS011;2890;51.950;7.668;2023-05-13T12:30:32;5.77;;;5.27;;
5730;SDS011;2890;51.950;7.668;2023-05-13T12:32:59;5.70;;;5.40;;
5730;SDS011;2890;51.950;7.668;2023-05-13T12:35:25;7.60;;;5.50;;
5730;SDS011;2890;51.950;7.668;2023-05-13T12:37:58;6.07;;;5.50;;
5730;SDS011;2890;51.950;7.668;2023-05-13T12:40:28;5.70;;;4.87;;
5730;SDS011;2890;51.950;7.668;2023-05-13T12:42:55;5.60;;;5.20;;
5730;SDS011;2890;51.950;7.668;2023-05-13T12:45:25;5.33;;;4.93;;
5730;SDS011;2890;51.950;7.668;2023-05-13T12:47:53;6.00;;;4.83;;
5730;SDS011;2890;51.950;7.668;2023-05-13T12:50:20;7.30;;;5.43;;
5730;SDS011;2890;51.950;7.668;2023-05-13T12:52:47;6.67;;;5.87;;
5730;SDS011;2890;51.950;7.668;2023-05-13T12:55:15;7.10;;;4.60;;
5730;SDS011;2890;51.950;7.668;2023-05-13T12:57:42;5.13;;;4.73;;
5730;SDS011;2890;51.950;7.668;2023-05-13T13:00:09;6.70;;;4.90;;
5730;SDS011;2890;51.950;7.668;2023-05-13T13:02:37;4.73;;;4.43;;
5730;SDS011;2890;51.950;7.668;2023-05-13T13:05:04;4.73;;;4.43;;
5730;SDS011;2890;51.950;7.668;2023-05-13T13:07:31;5.30;;;4.80;;
5730;SDS011;2890;51.950;7.668;2023-05-13T13:09:58;4.83;;;4.43;;
5730;SDS011;2890;51.950;7.668;2023-05-13T13:12:26;4.90;;;4.50;;
5730;SDS011;2890;51.950;7.668;2023-05-13T13:14:52;4.70;;;4.40;;
5730;SDS011;2890;51.950;7.668;2023-05-13T13:17:19;5.80;;;4.67;;
5730;SDS011;2890;51.950;7.668;2023-05-13T13:19:45;5.17;;;4.77;;
5730;SDS011;2890;51.950;7.668;2023-05-13T13:22:12;7.67;;;4.73;;
5730;SDS011;2890;51.950;7.668;2023-05-13T13:24:38;6.00;;;4.47;;
5730;SDS011;2890;51.950;7.668;2023-05-13T13:27:05;9.00;;;4.60;;
5730;SDS011;2890;51.950;7.668;2023-05-13T13:29:32;6.70;;;4.53;;
5730;SDS011;2890;51.950;7.668;2023-05-13T13:31:59;5.17;;;4.70;;
5730;SDS011;2890;51.950;7.668;2023-05-13T13:34:25;5.10;;;4.67;;
5730;SDS011;2890;51.950;7.668;2023-05-13T13:36:52;6.03;;;4.13;;
5730;SDS011;2890;51.950;7.668;2023-05-13T13:39:18;9.03;;;4.40;;
5730;SDS011;2890;51.950;7.668;2023-05-13T13:41:45;5.10;;;4.30;;
5730;SDS011;2890;51.950;7.668;2023-05-13T13:44:12;4.67;;;4.37;;
5730;SDS011;2890;51.950;7.668;2023-05-13T13:46:40;5.23;;;4.50;;
5730;SDS011;2890;51.950;7.668;2023-05-13T13:49:06;4.63;;;4.20;;
5730;SDS011;2890;51.950;7.668;2023-05-13T13:51:33;4.70;;;4.40;;
5730;SDS011;2890;51.950;7.668;2023-05-13T13:54:02;4.90;;;4.60;;
5730;SDS011;2890;51.950;7.668;2023-05-13T13:56:29;5.73;;;4.70;;
5730;SDS011;2890;51.950;7.668;2023-05-13T13:58:55;5.40;;;4.90;;
5730;SDS011;2890;51.950;7.668;2023-05-13T14:01:22;5.93;;;4.27;;
5730;SDS011;2890;51.950;7.668;2023-05-13T14:03:51;6.00;;;4.80;;
5730;SDS011;2890;51.950;7.668;2023-05-13T14:06:18;4.73;;;4.27;;
5730;SDS011;2890;51.950;7.668;2023-05-13T14:08:44;8.90;;;5.43;;
5730;SDS011;2890;51.950;7.668;2023-05-13T14:11:11;8.10;;;4.47;;
5730;SDS011;2890;51.950;7.668;2023-05-13T14:13:39;5.37;;;4.97;;
5730;SDS011;2890;51.950;7.668;2023-05-13T14:16:05;5.90;;;4.93;;
5730;SDS011;2890;51.950;7.668;2023-05-13T14:18:32;5.00;;;4.70;;
5730;SDS011;2890;51.950;7.668;2023-05-13T14:21:00;5.90;;;5.40;;
5730;SDS011;2890;51.950;7.668;2023-05-13T14:23:27;4.33;;;4.03;;
5730;SDS011;2890;51.950;7.668;2023-05-13T14:25:53;8.97;;;4.77;;
5730;SDS011;2890;51.950;7.668;2023-05-13T14:28:20;8.20;;;5.43;;
5730;SDS011;2890;51.950;7.668;2023-05-13T14:30:46;5.07;;;4.67;;
5730;SDS011;2890;51.950;7.668;2023-05-13T14:33:13;5.73;;;5.13;;
5730;SDS011;2890;51.950;7.668;2023-05-13T14:35:39;5.00;;;4.60;;
5730;SDS011;2890;51.950;7.668;2023-05-13T14:38:07;4.80;;;4.50;;
5730;SDS011;2890;51.950;7.668;2023-05-13T14:40:34;6.00;;;4.57;;
5730;SDS011;2890;51.950;7.668;2023-05-13T14:43:00;5.83;;;5.03;;
5730;SDS011;2890;51.950;7.668;2023-05-13T14:45:27;6.20;;;5.27;;
5730;SDS011;2890;51.950;7.668;2023-05-13T14:47:53;5.63;;;5.00;;
5730;SDS011;2890;51.950;7.668;2023-05-13T14:50:20;6.00;;;5.40;;
5730;SDS011;2890;51.950;7.668;2023-05-13T14:52:47;5.03;;;4.63;;
5730;SDS011;2890;51.950;7.668;2023-05-13T14:55:14;5.90;;;5.40;;
5730;SDS011;2890;51.950;7.668;2023-05-13T14:57:41;4.90;;;4.60;;
5730;SDS011;2890;51.950;7.668;2023-05-13T15:00:08;4.80;;;4.43;;
5730;SDS011;2890;51.950;7.668;2023-05-13T15:02:35;4.90;;;4.60;;
5730;SDS011;2890;51.950;7.668;2023-05-13T15:07:54;5.47;;;4.33;;
5730;SDS011;2890;51.950;7.668;2023-05-13T15:10:21;5.10;;;4.70;;
5730;SDS011;2890;51.950;7.668;2023-05-13T15:12:48;5.60;;;5.03;;
5730;SDS011;2890;51.950;7.668;2023-05-13T15:15:14;5.23;;;4.27;;
5730;SDS011;2890;51.950;7.668;2023-05-13T15:17:41;5.00;;;4.70;;
5730;SDS011;2890;51.950;7.668;2023-05-13T15:20:08;5.40;;;4.60;;